Time;durP1;ratioP1;P1;durP2;ratioP2;P2;SDS_P1;SDS_P2;PMS_P1;PMS_P2;Temp;Humidity;BMP_temperature;BMP_pressure;BME280_temperature;BME280_humidity;BME280_pressure;Samples;Min_cycle;Max_cycle;Signal;HPM_P1;HPM_P2
2021/09/22 00:01:34;;;;;;;1.20;1.10;;;9.60;98.00;;;;;;5091557;28;20487;-68
2021/09/22 00:04:01;;;;;;;2.27;1.40;;;9.50;98.00;;;;;;5091456;28;21010;-68
2021/09/22 00:06:28;;;;;;;2.50;2.07;;;9.50;98.00;;;;;;5091549;28;20457;-68
2021/09/22 00:08:55;;;;;;;1.33;1.20;;;9.50;98.00;;;;;;5091417;28;21030;-68
2021/09/22 00:11:23;;;;;;;1.67;1.50;;;9.70;98.00;;;;;;5091347;28;20545;-69
2021/09/22 00:13:54;;;;;;;1.30;1.20;;;9.80;98.00;;;;;;5091355;28;20466;-69
2021/09/22 00:16:21;;;;;;;2.73;1.30;;;9.90;98.00;;;;;;5091058;28;20574;-69
2021/09/22 00:18:48;;;;;;;1.57;1.10;;;9.90;98.00;;;;;;5091298;28;20455;-68
2021/09/22 00:21:15;;;;;;;1.30;1.10;;;9.60;98.00;;;;;;5091328;28;20927;-69
2021/09/22 00:23:42;;;;;;;1.20;1.10;;;9.40;98.00;;;;;;5091302;28;20814;-69
2021/09/22 00:26:09;;;;;;;6.40;1.53;;;9.30;98.00;;;;;;5091234;28;20818;-68
2021/09/22 00:28:37;;;;;;;1.70;1.40;;;9.20;98.00;;;;;;5091223;28;20488;-69
2021/09/22 00:31:05;;;;;;;1.30;1.10;;;9.00;98.00;;;;;;5091400;28;20949;-68
2021/09/22 00:33:33;;;;;;;2.30;1.37;;;9.00;98.00;;;;;;5091363;28;20464;-68
2021/09/22 00:36:00;;;;;;;1.20;1.10;;;8.90;98.00;;;;;;5091319;28;20562;-67
2021/09/22 00:38:28;;;;;;;1.20;1.00;;;8.80;98.00;;;;;;5091100;28;20465;-68
2021/09/22 00:40:55;;;;;;;1.80;1.30;;;8.80;98.00;;;;;;5091235;28;20494;-68
2021/09/22 00:43:21;;;;;;;1.30;1.10;;;8.80;98.00;;;;;;5091034;28;20540;-68
2021/09/22 00:45:51;;;;;;;1.50;1.23;;;8.90;98.00;;;;;;5091176;28;20502;-69
2021/09/22 00:48:18;;;;;;;1.20;1.10;;;9.00;98.00;;;;;;5089946;28;20525;-68
2021/09/22 00:50:47;;;;;;;1.40;1.20;;;9.10;98.00;;;;;;5091181;28;20484;-68
2021/09/22 00:53:14;;;;;;;1.43;1.13;;;9.20;98.00;;;;;;5090952;28;20464;-68
2021/09/22 00:55:41;;;;;;;1.20;1.00;;;9.20;98.00;;;;;;5073489;28;20522;-68
2021/09/22 00:58:11;;;;;;;1.57;1.10;;;9.10;98.00;;;;;;5091016;28;20494;-67
2021/09/22 01:00:38;;;;;;;2.37;1.40;;;9.20;98.00;;;;;;5091049;28;20478;-68
2021/09/22 01:03:07;;;;;;;1.30;1.23;;;9.20;98.00;;;;;;5092089;28;20919;-67
2021/09/22 01:05:34;;;;;;;1.20;1.00;;;9.20;98.00;;;;;;5095002;28;20446;-68
2021/09/22 01:08:05;;;;;;;2.90;1.30;;;9.10;98.00;;;;;;5094897;28;20542;-68
2021/09/22 01:10:33;;;;;;;1.40;1.30;;;9.00;98.00;;;;;;5093728;28;20454;-68
2021/09/22 01:13:00;;;;;;;1.70;1.30;;;8.90;98.00;;;;;;5094875;28;20462;-68
2021/09/22 01:15:30;;;;;;;1.30;1.10;;;8.80;98.00;;;;;;5094902;28;20480;-68
2021/09/22 01:17:57;;;;;;;1.73;1.23;;;8.70;98.00;;;;;;5094746;28;20525;-68
2021/09/22 01:20:29;;;;;;;1.20;1.00;;;8.70;98.00;;;;;;5094711;28;20459;-68
2021/09/22 01:22:59;;;;;;;1.50;1.40;;;8.70;98.00;;;;;;5094395;28;20459;-68
2021/09/22 01:25:26;;;;;;;2.03;1.20;;;8.70;98.00;;;;;;5094524;28;20528;-69
2021/09/22 01:27:57;;;;;;;1.80;1.30;;;8.70;98.00;;;;;;5093178;28;20479;-68
2021/09/22 01:30:24;;;;;;;1.20;1.03;;;8.70;98.00;;;;;;5094341;28;21007;-67
2021/09/22 01:32:53;;;;;;;1.40;1.00;;;8.70;98.00;;;;;;5094245;28;20499;-68
2021/09/22 01:35:23;;;;;;;2.47;1.30;;;8.70;98.00;;;;;;5094121;28;20589;-68
2021/09/22 01:37:50;;;;;;;1.37;1.10;;;8.60;98.00;;;;;;5094282;28;20507;-69
2021/09/22 01:40:21;;;;;;;1.20;1.07;;;8.50;98.00;;;;;;5094260;28;20548;-68
2021/09/22 01:42:48;;;;;;;2.30;1.47;;;8.50;98.00;;;;;;5093965;28;20483;-68
2021/09/22 01:45:16;;;;;;;4.37;1.73;;;8.50;98.00;;;;;;5094031;28;20509;-68
2021/09/22 01:47:44;;;;;;;1.40;1.40;;;8.60;98.00;;;;;;5092739;28;20459;-68
2021/09/22 01:50:13;;;;;;;1.20;1.00;;;8.60;98.00;;;;;;5092744;28;20977;-68
2021/09/22 01:52:43;;;;;;;1.40;1.10;;;8.50;98.00;;;;;;5093536;28;20463;-68
2021/09/22 01:55:11;;;;;;;2.03;1.33;;;8.40;98.00;;;;;;5092152;28;20571;-68
2021/09/22 01:57:40;;;;;;;1.77;1.53;;;8.40;98.00;;;;;;5093576;28;20460;-68
2021/09/22 02:00:08;;;;;;;1.37;1.20;;;8.50;98.00;;;;;;5093712;28;20521;-68
2021/09/22 02:02:35;;;;;;;1.20;1.03;;;8.40;98.00;;;;;;5093839;28;20487;-68
2021/09/22 02:05:03;;;;;;;2.57;1.27;;;8.40;98.00;;;;;;5093771;28;20954;-68
2021/09/22 02:07:31;;;;;;;1.77;1.30;;;8.60;98.00;;;;;;5093647;28;21031;-69
2021/09/22 02:09:59;;;;;;;1.27;1.27;;;8.50;98.00;;;;;;5093768;28;20461;-68
2021/09/22 02:12:26;;;;;;;1.20;1.00;;;8.40;98.00;;;;;;5093680;28;20460;-68
2021/09/22 02:14:55;;;;;;;1.90;1.80;;;8.40;98.00;;;;;;5092996;28;20479;-68
2021/09/22 02:17:23;;;;;;;1.20;1.10;;;8.40;98.00;;;;;;5093673;28;20491;-67
2021/09/22 02:19:50;;;;;;;1.20;1.00;;;8.60;98.00;;;;;;5093974;28;20486;-68
2021/09/22 02:22:17;;;;;;;1.47;1.30;;;8.60;98.00;;;;;;5093587;28;20454;-68
2021/09/22 02:24:44;;;;;;;2.20;1.63;;;8.50;98.00;;;;;;5093527;28;20529;-68
2021/09/22 02:27:12;;;;;;;1.20;1.00;;;8.60;98.00;;;;;;5093435;28;20870;-68
2021/09/22 02:29:41;;;;;;;1.20;1.17;;;8.50;98.00;;;;;;5093508;28;20494;-68
2021/09/22 02:32:10;;;;;;;1.20;1.10;;;8.40;98.00;;;;;;5093443;28;20507;-68
2021/09/22 02:34:38;;;;;;;1.20;1.10;;;8.30;98.00;;;;;;5093493;28;20616;-68
2021/09/22 02:37:06;;;;;;;1.20;1.10;;;8.30;98.00;;;;;;5093335;28;20571;-68
2021/09/22 02:39:33;;;;;;;2.07;1.40;;;8.30;98.00;;;;;;5093387;28;20555;-68
2021/09/22 02:42:00;;;;;;;1.20;1.10;;;8.40;98.00;;;;;;5093186;28;20501;-68
2021/09/22 02:44:28;;;;;;;1.30;1.10;;;8.40;98.00;;;;;;5093223;28;20523;-68
2021/09/22 02:46:55;;;;;;;1.20;1.00;;;8.30;98.00;;;;;;5091659;28;20490;-67
2021/09/22 02:49:23;;;;;;;1.90;1.10;;;8.20;98.00;;;;;;5092853;28;20512;-68
2021/09/22 02:51:50;;;;;;;1.67;1.30;;;8.20;98.00;;;;;;5092826;28;20557;-68
2021/09/22 02:54:18;;;;;;;1.60;1.20;;;8.20;98.00;;;;;;5092726;28;20498;-68
2021/09/22 02:56:45;;;;;;;1.40;1.23;;;8.20;98.00;;;;;;5092833;28;20518;-68
2021/09/22 02:59:13;;;;;;;4.30;1.50;;;8.10;98.00;;;;;;5092843;28;20448;-68
2021/09/22 03:01:40;;;;;;;1.20;1.00;;;8.20;98.00;;;;;;5092525;28;20494;-68
2021/09/22 03:04:08;;;;;;;1.20;1.00;;;8.10;98.00;;;;;;5092345;28;20500;-68
2021/09/22 03:06:36;;;;;;;1.20;1.10;;;8.00;98.00;;;;;;5091122;28;20455;-68
2021/09/22 03:09:03;;;;;;;2.27;1.50;;;8.10;98.00;;;;;;5092642;28;20456;-68
2021/09/22 03:11:30;;;;;;;1.80;1.30;;;8.00;98.00;;;;;;5092182;28;20878;-68
2021/09/22 03:13:57;;;;;;;2.30;1.53;;;8.00;98.00;;;;;;5092409;28;20463;-68
2021/09/22 03:16:24;;;;;;;3.00;1.90;;;8.00;98.00;;;;;;5092322;28;20560;-69
2021/09/22 03:18:51;;;;;;;1.50;1.27;;;7.90;98.00;;;;;;5092273;28;20474;-68
2021/09/22 03:21:18;;;;;;;1.20;1.07;;;7.90;98.00;;;;;;5092250;28;20528;-68
2021/09/22 03:23:47;;;;;;;1.20;1.00;;;8.00;98.00;;;;;;5092313;28;20498;-68
2021/09/22 03:26:14;;;;;;;1.20;1.00;;;8.00;98.00;;;;;;5090366;28;20544;-68
2021/09/22 03:28:41;;;;;;;2.20;1.70;;;8.00;98.00;;;;;;5092138;28;20490;-68
2021/09/22 03:31:08;;;;;;;1.77;1.10;;;8.10;98.00;;;;;;5092096;28;20994;-68
2021/09/22 03:33:35;;;;;;;1.20;1.10;;;8.00;98.00;;;;;;5091988;28;20451;-69
2021/09/22 03:36:02;;;;;;;1.40;1.27;;;7.90;98.00;;;;;;5092083;28;20516;-67
2021/09/22 03:38:29;;;;;;;1.63;1.30;;;7.90;98.00;;;;;;5091922;28;20455;-68
2021/09/22 03:40:57;;;;;;;2.17;1.57;;;7.80;98.00;;;;;;5091980;28;20814;-68
2021/09/22 03:43:25;;;;;;;2.03;1.20;;;7.80;98.00;;;;;;5092023;28;20469;-68
2021/09/22 03:45:52;;;;;;;1.53;1.10;;;7.90;98.00;;;;;;5090718;28;20941;-68
2021/09/22 03:48:19;;;;;;;1.20;1.00;;;8.00;98.00;;;;;;5089283;28;21044;-69
2021/09/22 03:50:48;;;;;;;1.30;1.10;;;8.10;98.00;;;;;;5092196;28;20524;-68
2021/09/22 03:53:16;;;;;;;1.20;1.00;;;8.20;98.00;;;;;;5091736;28;20459;-68
2021/09/22 03:55:43;;;;;;;1.73;1.23;;;8.10;98.00;;;;;;5091965;28;20557;-68
2021/09/22 03:58:12;;;;;;;1.67;1.53;;;8.20;98.00;;;;;;5091778;28;20516;-68
2021/09/22 04:00:39;;;;;;;1.70;1.20;;;8.10;98.00;;;;;;5092175;28;20956;-68
2021/09/22 04:03:06;;;;;;;1.20;1.07;;;7.90;98.00;;;;;;5091336;28;20513;-68
2021/09/22 04:05:33;;;;;;;1.43;1.17;;;7.90;98.00;;;;;;5091746;28;20486;-68
2021/09/22 04:08:00;;;;;;;1.47;1.37;;;7.80;98.00;;;;;;5091293;28;20543;-68
2021/09/22 04:10:27;;;;;;;1.20;1.17;;;7.80;98.00;;;;;;5091513;28;20453;-68
2021/09/22 04:12:54;;;;;;;1.83;1.20;;;7.90;98.00;;;;;;5091679;28;20878;-67
2021/09/22 04:15:23;;;;;;;1.30;1.20;;;8.00;98.00;;;;;;5090076;28;20445;-68
2021/09/22 04:17:50;;;;;;;1.30;1.10;;;7.90;98.00;;;;;;5091144;28;20456;-68
2021/09/22 04:20:17;;;;;;;2.20;1.40;;;7.90;98.00;;;;;;5091229;28;20976;-67
2021/09/22 04:22:44;;;;;;;2.23;1.30;;;8.00;98.00;;;;;;5091088;28;20453;-68
2021/09/22 04:25:12;;;;;;;1.97;1.43;;;8.00;98.00;;;;;;5091228;28;20462;-68
2021/09/22 04:27:39;;;;;;;2.07;1.20;;;7.80;98.00;;;;;;5091279;28;20483;-67
2021/09/22 04:30:08;;;;;;;1.23;1.07;;;7.70;98.00;;;;;;5091295;28;20464;-69
2021/09/22 04:32:37;;;;;;;1.40;1.30;;;7.60;98.00;;;;;;5091039;28;20453;-67
2021/09/22 04:35:05;;;;;;;1.30;1.20;;;7.60;98.00;;;;;;5091241;28;20493;-68
2021/09/22 04:37:35;;;;;;;1.97;1.50;;;7.50;98.00;;;;;;5092915;28;20527;-67
2021/09/22 04:40:04;;;;;;;1.23;1.20;;;7.40;98.00;;;;;;5095162;28;20487;-67
2021/09/22 04:42:32;;;;;;;1.20;1.00;;;7.40;98.00;;;;;;5095207;28;20466;-68
2021/09/22 04:45:00;;;;;;;2.23;2.03;;;7.60;98.00;;;;;;5095366;28;20476;-68
2021/09/22 04:47:29;;;;;;;3.40;1.73;;;7.60;98.00;;;;;;5094990;28;20459;-68
2021/09/22 04:49:58;;;;;;;1.97;1.20;;;7.50;98.00;;;;;;5095370;28;20461;-67
2021/09/22 04:52:25;;;;;;;1.20;1.00;;;7.50;98.00;;;;;;5094950;28;20494;-69
2021/09/22 04:54:53;;;;;;;2.57;1.10;;;7.50;98.00;;;;;;5095160;28;20468;-68
2021/09/22 04:57:20;;;;;;;1.40;1.27;;;7.60;98.00;;;;;;5095104;28;20868;-68
2021/09/22 05:00:27;;;;;;;1.40;1.40;;;7.80;98.00;;;;;;5093794;28;20952;-69
2021/09/22 05:02:54;;;;;;;1.30;1.20;;;7.70;98.00;;;;;;5094922;28;20453;-69
2021/09/22 05:05:23;;;;;;;1.20;1.10;;;7.50;98.00;;;;;;5094800;28;20465;-67
2021/09/22 05:07:50;;;;;;;1.40;1.10;;;7.50;98.00;;;;;;5093884;28;20842;-67
2021/09/22 05:10:17;;;;;;;1.30;1.30;;;7.60;98.00;;;;;;5094904;28;20956;-68
2021/09/22 05:12:44;;;;;;;1.40;1.20;;;7.60;98.00;;;;;;5094917;28;20511;-67
2021/09/22 05:15:11;;;;;;;1.20;1.10;;;7.50;98.00;;;;;;5094879;28;20485;-68
2021/09/22 05:17:38;;;;;;;1.30;1.20;;;7.40;98.00;;;;;;5094453;28;20588;-68
2021/09/22 05:20:07;;;;;;;9.40;1.20;;;7.40;98.00;;;;;;5095031;28;20861;-68
2021/09/22 05:22:35;;;;;;;1.50;1.10;;;7.30;98.00;;;;;;5094755;28;21052;-68
2021/09/22 05:25:03;;;;;;;1.20;1.03;;;7.40;98.00;;;;;;5093226;28;20519;-68
2021/09/22 05:27:32;;;;;;;1.20;1.10;;;7.40;98.00;;;;;;5093654;28;20478;-68
2021/09/22 05:29:59;;;;;;;1.30;1.00;;;7.50;98.00;;;;;;5094163;28;20838;-68
2021/09/22 05:32:26;;;;;;;1.30;1.20;;;7.70;98.00;;;;;;5094086;28;20873;-68
2021/09/22 05:34:53;;;;;;;1.20;1.00;;;7.70;98.00;;;;;;5094407;28;20449;-68
2021/09/22 05:37:20;;;;;;;1.20;1.00;;;7.60;98.00;;;;;;5094044;28;21004;-68
2021/09/22 05:39:48;;;;;;;1.80;1.17;;;7.70;98.00;;;;;;5094283;28;20976;-67
2021/09/22 05:42:16;;;;;;;1.30;1.10;;;7.80;98.00;;;;;;5092909;28;21167;-68
2021/09/22 05:44:43;;;;;;;3.10;1.47;;;8.00;98.00;;;;;;5094194;28;20511;-68
2021/09/22 05:47:10;;;;;;;6.20;1.47;;;8.00;98.00;;;;;;5093909;28;20527;-68
2021/09/22 05:49:37;;;;;;;2.60;2.03;;;7.90;98.00;;;;;;5093075;28;20492;-68
2021/09/22 05:52:05;;;;;;;1.20;1.00;;;7.90;98.00;;;;;;5093864;28;20516;-68
2021/09/22 05:54:32;;;;;;;1.40;1.20;;;7.90;98.00;;;;;;5093926;28;20491;-68
2021/09/22 05:57:00;;;;;;;2.23;1.60;;;7.90;98.00;;;;;;5094041;28;20957;-67
2021/09/22 05:59:27;;;;;;;1.57;1.10;;;8.00;98.00;;;;;;5093831;28;20606;-68
2021/09/22 06:01:55;;;;;;;1.20;1.10;;;8.20;98.00;;;;;;5092539;28;20604;-68
2021/09/22 06:04:24;;;;;;;1.30;1.20;;;8.30;98.00;;;;;;5093714;28;20462;-68
2021/09/22 06:06:51;;;;;;;1.30;1.00;;;8.30;98.00;;;;;;5092805;28;20469;-68
2021/09/22 06:09:19;;;;;;;1.20;1.13;;;8.30;98.00;;;;;;5093759;28;20491;-68
2021/09/22 06:11:46;;;;;;;1.33;1.20;;;8.30;98.00;;;;;;5093446;28;21015;-68
2021/09/22 06:14:14;;;;;;;1.37;1.27;;;8.20;98.00;;;;;;5093647;28;20936;-68
2021/09/22 06:16:42;;;;;;;1.30;1.10;;;8.30;98.00;;;;;;5093558;28;20518;-68
2021/09/22 06:19:09;;;;;;;3.33;1.37;;;8.30;98.00;;;;;;5093640;28;21058;-69
2021/09/22 06:21:37;;;;;;;3.63;1.40;;;8.50;98.00;;;;;;5092517;28;20886;-68
2021/09/22 06:24:04;;;;;;;1.20;1.00;;;8.60;98.00;;;;;;5092370;28;20451;-68
2021/09/22 06:26:33;;;;;;;1.50;1.23;;;8.50;98.00;;;;;;5093711;28;20485;-69
2021/09/22 06:29:00;;;;;;;1.73;1.40;;;8.40;98.00;;;;;;5092856;28;20460;-69
2021/09/22 06:31:29;;;;;;;1.30;1.20;;;8.30;98.00;;;;;;5093474;28;20973;-69
2021/09/22 06:33:56;;;;;;;1.63;1.50;;;8.40;98.00;;;;;;5092419;28;20455;-68
2021/09/22 06:36:23;;;;;;;2.23;1.23;;;8.60;98.00;;;;;;5093330;28;20906;-68
2021/09/22 06:38:50;;;;;;;1.30;1.20;;;8.60;98.00;;;;;;5093451;28;20463;-69
2021/09/22 06:41:17;;;;;;;1.20;1.00;;;8.70;98.00;;;;;;5093316;28;20451;-68
2021/09/22 06:43:44;;;;;;;1.20;1.20;;;8.80;98.00;;;;;;5093394;28;21033;-68
2021/09/22 06:46:11;;;;;;;3.10;1.33;;;8.90;98.00;;;;;;5093157;28;20874;-68
2021/09/22 06:48:39;;;;;;;1.50;1.40;;;8.90;98.00;;;;;;5093115;28;20523;-69
2021/09/22 06:51:06;;;;;;;5.63;2.17;;;9.00;98.00;;;;;;5092936;28;20480;-68
2021/09/22 06:53:37;;;;;;;1.67;1.07;;;9.20;98.00;;;;;;5092736;28;20516;-68
2021/09/22 06:56:05;;;;;;;1.30;1.23;;;9.20;98.00;;;;;;5092605;28;20490;-69
2021/09/22 06:58:33;;;;;;;1.43;1.33;;;9.20;98.00;;;;;;5092555;28;20456;-70
2021/09/22 07:01:00;;;;;;;1.37;1.10;;;9.40;98.00;;;;;;5089658;28;20448;-69
2021/09/22 07:03:27;;;;;;;1.43;1.33;;;9.60;98.00;;;;;;5092208;28;20542;-69
2021/09/22 07:05:55;;;;;;;1.67;1.30;;;9.80;98.00;;;;;;5092649;28;20509;-68
2021/09/22 07:08:23;;;;;;;1.40;1.20;;;9.80;98.00;;;;;;5089706;28;20502;-67
2021/09/22 07:10:50;;;;;;;1.53;1.30;;;9.80;98.00;;;;;;5089130;28;20452;-68
2021/09/22 07:13:20;;;;;;;1.40;1.20;;;9.60;98.00;;;;;;5089735;28;20452;-68
2021/09/22 07:15:47;;;;;;;2.03;1.33;;;9.60;98.00;;;;;;5089817;28;20448;-67
2021/09/22 07:18:15;;;;;;;2.10;1.60;;;9.50;98.00;;;;;;5089860;28;20576;-68
2021/09/22 07:20:43;;;;;;;1.20;1.10;;;9.50;98.00;;;;;;5089504;28;20452;-68
2021/09/22 07:23:11;;;;;;;2.23;1.30;;;9.50;98.00;;;;;;5089929;28;20448;-68
2021/09/22 07:25:39;;;;;;;1.40;1.23;;;9.50;98.00;;;;;;5089506;28;20467;-69
2021/09/22 07:28:06;;;;;;;1.10;1.00;;;9.70;98.00;;;;;;5089516;28;20487;-70
2021/09/22 07:30:33;;;;;;;1.23;1.13;;;10.40;98.00;;;;;;5088395;28;20848;-68
2021/09/22 07:33:06;;;;;;;1.87;1.53;;;10.70;98.00;;;;;;5089438;28;20523;-68
2021/09/22 07:35:35;;;;;;;2.00;1.50;;;10.70;98.00;;;;;;5089174;28;20523;-69
2021/09/22 07:38:02;;;;;;;1.50;1.40;;;10.80;98.00;;;;;;5079893;28;20566;-68
2021/09/22 07:40:31;;;;;;;1.27;1.07;;;10.80;98.00;;;;;;5089252;28;20449;-69
2021/09/22 07:42:58;;;;;;;1.70;1.23;;;10.90;98.00;;;;;;5080411;28;20505;-68
2021/09/22 07:45:26;;;;;;;1.80;1.30;;;11.00;98.00;;;;;;5088677;28;20481;-68
2021/09/22 07:47:53;;;;;;;1.80;1.10;;;10.90;98.00;;;;;;5088915;28;20458;-68
2021/09/22 07:50:20;;;;;;;1.53;1.33;;;10.90;98.00;;;;;;5085492;28;20467;-68
2021/09/22 07:52:48;;;;;;;1.40;1.30;;;10.80;98.00;;;;;;5088312;28;20503;-69
2021/09/22 07:55:15;;;;;;;1.70;1.37;;;10.90;98.00;;;;;;5089624;28;20457;-69
2021/09/22 07:57:43;;;;;;;1.60;1.50;;;10.90;98.00;;;;;;5089362;28;20916;-68
2021/09/22 08:00:13;;;;;;;2.03;1.33;;;10.90;98.00;;;;;;5088956;28;20463;-69
2021/09/22 08:02:40;;;;;;;1.50;1.33;;;10.90;98.00;;;;;;5089396;28;20511;-67
2021/09/22 08:05:08;;;;;;;1.40;1.40;;;10.90;98.00;;;;;;5089274;28;20465;-68
2021/09/22 08:07:35;;;;;;;3.20;1.50;;;11.10;98.00;;;;;;5089560;28;20452;-67
2021/09/22 08:10:02;;;;;;;1.57;1.20;;;11.20;98.00;;;;;;5088054;28;20454;-67
2021/09/22 08:12:29;;;;;;;2.30;1.60;;;11.40;98.00;;;;;;5088885;28;20493;-69
2021/09/22 08:14:58;;;;;;;1.93;1.73;;;11.60;98.00;;;;;;5087707;28;20501;-68
2021/09/22 08:17:26;;;;;;;1.40;1.17;;;11.80;98.00;;;;;;5089179;28;20492;-69
2021/09/22 08:19:53;;;;;;;2.70;1.73;;;11.90;98.00;;;;;;5087526;28;20460;-68
2021/09/22 08:22:20;;;;;;;1.73;1.50;;;12.00;98.00;;;;;;5088811;28;20518;-68
2021/09/22 08:24:48;;;;;;;1.30;1.20;;;12.10;98.00;;;;;;5088943;28;20521;-68
2021/09/22 08:27:18;;;;;;;1.90;1.43;;;12.00;98.00;;;;;;5088640;28;20453;-67
2021/09/22 08:29:46;;;;;;;1.53;1.33;;;12.10;98.00;;;;;;5088670;28;20473;-70
2021/09/22 08:32:14;;;;;;;2.13;1.40;;;12.40;98.00;;;;;;5088819;28;21169;-69
2021/09/22 08:34:41;;;;;;;1.70;1.60;;;12.60;98.00;;;;;;5088155;28;20459;-68
2021/09/22 08:37:08;;;;;;;2.10;1.40;;;12.80;98.00;;;;;;5088641;28;20486;-68
2021/09/22 08:39:36;;;;;;;4.90;2.20;;;12.80;98.00;;;;;;5088638;28;20482;-70
2021/09/22 08:42:05;;;;;;;3.47;1.97;;;12.90;98.00;;;;;;5088372;28;20490;-70
2021/09/22 08:44:32;;;;;;;2.03;1.70;;;12.90;98.00;;;;;;5090276;28;20823;-68
2021/09/22 08:47:00;;;;;;;1.50;1.40;;;13.00;98.00;;;;;;5090946;28;20489;-67
2021/09/22 08:49:28;;;;;;;2.27;2.07;;;13.10;98.00;;;;;;5091096;28;20511;-69
2021/09/22 08:51:55;;;;;;;2.90;1.77;;;13.30;98.00;;;;;;5090998;28;21011;-69
2021/09/22 08:54:22;;;;;;;2.00;1.53;;;13.60;98.00;;;;;;5091007;28;20480;-68
2021/09/22 08:56:51;;;;;;;3.37;2.33;;;13.70;98.00;;;;;;5091174;28;20452;-68
2021/09/22 08:59:18;;;;;;;2.37;1.57;;;13.90;98.00;;;;;;5090948;28;20487;-68
2021/09/22 09:02:06;;;;;;;2.27;1.90;;;14.00;98.00;;;;;;5091183;28;20451;-68
2021/09/22 09:04:35;;;;;;;1.43;1.37;;;14.00;98.00;;;;;;5090965;28;20489;-70
2021/09/22 09:07:05;;;;;;;3.67;1.80;;;14.10;98.00;;;;;;5091177;28;20487;-69
2021/09/22 09:09:33;;;;;;;2.90;1.80;;;14.30;98.00;;;;;;5091208;28;20448;-69
2021/09/22 09:12:01;;;;;;;2.57;2.27;;;14.50;98.00;;;;;;5090786;28;20509;-69
2021/09/22 09:14:34;;;;;;;1.80;1.73;;;14.70;98.00;;;;;;5091095;28;20620;-69
2021/09/22 09:17:09;;;;;;;2.27;1.70;;;14.90;98.00;;;;;;5090936;28;20456;-68
2021/09/22 09:19:44;;;;;;;2.90;2.10;;;15.10;98.00;;;;;;5091241;28;20453;-69
2021/09/22 09:22:11;;;;;;;2.80;1.73;;;15.20;98.00;;;;;;5091235;28;20460;-69
2021/09/22 09:24:40;;;;;;;2.23;1.70;;;15.40;98.00;;;;;;5092501;28;21007;-69
2021/09/22 09:27:10;;;;;;;3.50;1.93;;;15.50;98.00;;;;;;5094627;28;20515;-69
2021/09/22 09:29:38;;;;;;;2.83;2.00;;;15.60;98.00;;;;;;5094496;28;20460;-69
2021/09/22 09:32:20;;;;;;;2.70;1.80;;;15.60;98.00;;;;;;5094284;28;20459;-70
2021/09/22 09:35:01;;;;;;;2.87;2.00;;;15.70;98.00;;;;;;5094492;28;21023;-70
2021/09/22 09:37:30;;;;;;;2.93;2.23;;;15.80;98.00;;;;;;5094455;28;20539;-69
2021/09/22 09:39:57;;;;;;;3.03;1.90;;;15.80;98.00;;;;;;5094155;28;20505;-71
2021/09/22 09:42:29;;;;;;;3.83;2.40;;;15.80;98.00;;;;;;5093909;28;20963;-71
2021/09/22 09:44:57;;;;;;;4.57;1.70;;;15.80;98.00;;;;;;5094257;28;20454;-71
2021/09/22 09:47:24;;;;;;;4.37;1.87;;;16.00;98.00;;;;;;5094198;28;20483;-70
2021/09/22 09:49:51;;;;;;;1.67;1.53;;;16.10;98.00;;;;;;5094183;28;20455;-69
2021/09/22 09:52:20;;;;;;;2.37;1.53;;;16.30;98.00;;;;;;5093788;28;20515;-70
2021/09/22 09:54:52;;;;;;;1.80;1.50;;;16.50;98.00;;;;;;5094017;28;20512;-71
2021/09/22 09:57:21;;;;;;;2.03;1.83;;;16.70;98.00;;;;;;5092548;28;21067;-71
2021/09/22 09:59:50;;;;;;;2.30;1.80;;;16.90;98.00;;;;;;5094191;28;20484;-70
2021/09/22 10:02:25;;;;;;;1.93;1.73;;;17.10;97.30;;;;;;5093720;28;20972;-72
2021/09/22 10:04:52;;;;;;;2.27;1.47;;;17.20;95.80;;;;;;5093638;28;20553;-71
2021/09/22 10:07:21;;;;;;;1.50;1.20;;;17.40;96.20;;;;;;5093807;28;20966;-72
2021/09/22 10:09:49;;;;;;;1.97;1.50;;;17.60;94.80;;;;;;5093795;28;20981;-71
2021/09/22 10:12:18;;;;;;;2.20;1.40;;;17.90;94.20;;;;;;5092943;28;20535;-70
2021/09/22 10:14:47;;;;;;;2.17;1.73;;;18.00;94.30;;;;;;5093729;28;20521;-72
2021/09/22 10:17:17;;;;;;;2.13;1.73;;;18.30;94.50;;;;;;5093574;28;20963;-72
2021/09/22 10:19:45;;;;;;;1.73;1.67;;;18.40;92.40;;;;;;5093294;28;20851;-71
2021/09/22 10:22:12;;;;;;;2.43;1.47;;;18.40;92.30;;;;;;5093547;28;20460;-72
2021/09/22 10:24:43;;;;;;;2.10;1.40;;;18.40;93.00;;;;;;5093756;28;20864;-71
2021/09/22 10:27:17;;;;;;;2.47;2.00;;;18.40;93.30;;;;;;5093218;28;20477;-72
2021/09/22 10:29:56;;;;;;;1.20;1.10;;;18.40;92.10;;;;;;5093597;28;20516;-72
2021/09/22 10:32:38;;;;;;;2.83;1.83;;;18.60;93.30;;;;;;5093549;28;20546;-72
2021/09/22 10:35:40;;;;;;;2.10;1.50;;;18.80;91.90;;;;;;5093231;28;20452;-73
2021/09/22 10:38:40;;;;;;;2.83;1.90;;;19.00;92.60;;;;;;5030625;28;20521;-71
2021/09/22 10:41:10;;;;;;;1.87;1.77;;;19.30;92.40;;;;;;5029317;28;20463;-73
2021/09/22 10:43:41;;;;;;;1.63;1.27;;;19.60;91.00;;;;;;5074585;28;20459;-71
2021/09/22 10:46:14;;;;;;;2.53;1.40;;;19.70;91.40;;;;;;5093530;28;20509;-71
2021/09/22 10:48:59;;;;;;;1.40;1.30;;;19.90;90.60;;;;;;5093011;28;20452;-70
2021/09/22 10:51:31;;;;;;;1.60;1.40;;;20.20;90.10;;;;;;5092167;28;20459;-71
2021/09/22 10:54:11;;;;;;;1.67;1.53;;;20.30;88.40;;;;;;5092707;28;20501;-71
2021/09/22 10:56:51;;;;;;;1.30;1.30;;;20.40;89.70;;;;;;5092906;28;20456;-72
2021/09/22 10:59:32;;;;;;;2.00;1.60;;;20.40;88.40;;;;;;5092713;28;20523;-71
2021/09/22 11:02:00;;;;;;;2.10;1.70;;;20.50;87.60;;;;;;5091894;28;20471;-69
2021/09/22 11:04:47;;;;;;;1.90;1.47;;;20.50;88.30;;;;;;5091377;28;20468;-70
2021/09/22 11:07:14;;;;;;;2.57;1.70;;;20.60;90.30;;;;;;5092427;28;20525;-72
2021/09/22 11:09:41;;;;;;;2.93;1.67;;;20.60;88.40;;;;;;5092424;28;20472;-71
2021/09/22 11:12:12;;;;;;;2.27;1.60;;;20.80;89.20;;;;;;5092632;28;20456;-71
2021/09/22 11:14:52;;;;;;;1.80;1.33;;;21.00;87.90;;;;;;5092463;28;20866;-70
2021/09/22 11:17:22;;;;;;;2.03;1.60;;;21.30;86.60;;;;;;5092494;28;20460;-70
2021/09/22 11:19:53;;;;;;;2.47;1.70;;;21.60;85.50;;;;;;5092338;28;20486;-70
2021/09/22 11:22:22;;;;;;;2.00;1.67;;;21.70;85.10;;;;;;5092340;28;20459;-71
2021/09/22 11:24:53;;;;;;;1.80;1.70;;;21.60;86.30;;;;;;5092490;28;20485;-70
2021/09/22 11:27:23;;;;;;;3.50;2.20;;;21.60;87.00;;;;;;5092251;28;20460;-71
2021/09/22 11:29:51;;;;;;;1.70;1.60;;;21.60;85.50;;;;;;5092399;28;20452;-71
2021/09/22 11:32:31;;;;;;;1.40;1.30;;;21.70;84.50;;;;;;5092248;28;20539;-71
2021/09/22 11:35:00;;;;;;;3.20;1.60;;;22.00;85.80;;;;;;5092256;28;20456;-72
2021/09/22 11:37:33;;;;;;;2.57;2.10;;;22.10;85.80;;;;;;5092005;28;20449;-72
2021/09/22 11:40:13;;;;;;;1.77;1.43;;;22.30;84.60;;;;;;5092338;28;20505;-71
2021/09/22 11:42:55;;;;;;;2.00;1.57;;;22.30;84.30;;;;;;5092072;28;20447;-72
2021/09/22 11:45:23;;;;;;;2.13;1.93;;;22.30;84.80;;;;;;5092024;28;20454;-71
2021/09/22 11:47:50;;;;;;;3.60;2.00;;;22.20;84.90;;;;;;5091424;28;20491;-73
2021/09/22 11:50:29;;;;;;;2.00;1.60;;;22.30;83.30;;;;;;5092097;28;20477;-72
2021/09/22 11:52:56;;;;;;;1.97;1.60;;;22.30;83.90;;;;;;5092058;28;20478;-72
2021/09/22 11:55:24;;;;;;;1.90;1.60;;;22.10;85.00;;;;;;5092222;28;20491;-72
2021/09/22 11:57:52;;;;;;;1.97;1.73;;;21.90;84.80;;;;;;5091945;28;20999;-71
2021/09/22 12:00:21;;;;;;;1.57;1.43;;;21.70;84.60;;;;;;5092093;28;20462;-73
2021/09/22 12:02:49;;;;;;;1.73;1.37;;;21.70;85.20;;;;;;5091978;28;20460;-72
2021/09/22 12:05:18;;;;;;;2.47;1.60;;;21.60;86.60;;;;;;5091872;28;20483;-71
2021/09/22 12:08:02;;;;;;;2.23;1.80;;;21.50;86.90;;;;;;5150646;27;20538;-71
2021/09/22 12:10:29;;;;;;;1.93;1.63;;;21.40;87.40;;;;;;5129922;28;20985;-71
2021/09/22 12:13:00;;;;;;;2.43;1.73;;;21.10;87.60;;;;;;5129920;28;20486;-73
2021/09/22 12:15:27;;;;;;;3.00;1.43;;;20.90;89.20;;;;;;5129674;28;20452;-71
2021/09/22 12:17:55;;;;;;;2.00;1.57;;;20.90;86.80;;;;;;5129741;28;20484;-72
2021/09/22 12:20:22;;;;;;;1.67;1.33;;;21.10;87.10;;;;;;5129627;28;20482;-71
2021/09/22 12:22:58;;;;;;;1.30;1.20;;;21.20;87.90;;;;;;5129640;28;20873;-69
2021/09/22 12:25:27;;;;;;;1.73;1.53;;;21.30;88.90;;;;;;5129367;27;20482;-69
2021/09/22 12:27:54;;;;;;;2.20;1.60;;;21.40;88.40;;;;;;5129269;28;20482;-70
2021/09/22 12:30:30;;;;;;;2.03;1.60;;;21.60;88.70;;;;;;5129482;28;20457;-68
2021/09/22 12:33:02;;;;;;;2.13;1.50;;;21.80;87.10;;;;;;5129324;28;20461;-70
2021/09/22 12:35:32;;;;;;;2.03;1.50;;;21.80;87.30;;;;;;5129252;27;20858;-70
2021/09/22 12:38:02;;;;;;;1.50;1.40;;;21.70;87.60;;;;;;5129023;28;20450;-69
2021/09/22 12:40:33;;;;;;;2.40;2.20;;;21.70;86.70;;;;;;5129265;28;20458;-70
2021/09/22 12:43:02;;;;;;;1.40;1.30;;;21.80;86.60;;;;;;5129123;28;20478;-68
2021/09/22 12:45:31;;;;;;;1.83;1.60;;;21.70;86.60;;;;;;5129219;27;20464;-69
2021/09/22 12:48:01;;;;;;;1.93;1.60;;;21.60;87.40;;;;;;5128975;28;21057;-70
2021/09/22 12:50:32;;;;;;;2.33;1.30;;;21.60;87.50;;;;;;5129209;27;20477;-70
2021/09/22 12:53:07;;;;;;;1.97;1.50;;;21.80;87.50;;;;;;5127658;28;20944;-69
2021/09/22 12:55:38;;;;;;;2.30;1.57;;;21.80;86.60;;;;;;5129130;28;20454;-69
2021/09/22 12:58:05;;;;;;;1.87;1.33;;;22.00;87.40;;;;;;5129074;27;20446;-70
2021/09/22 13:00:38;;;;;;;2.30;1.63;;;22.20;88.40;;;;;;5128964;28;20515;-69
2021/09/22 13:03:19;;;;;;;1.30;1.20;;;22.40;87.10;;;;;;5128843;28;20474;-70